Laurens, Iowa
Current Conditions -  °F | °C
As of 10:35 AM on Saturday 22 Nov 2014 (Local Time) from KSLB Reporting Station
Moderate Fog Moderate Fog  
Wind Chill: 27°   Ceiling: 200
Heat Index: 37°   Visibility: 0.5mi
Dew Point: 37°   Wind: 21mph
Humidity: 100%   Direction: 220°SW
Pressure: 29.75"   Gusts: NA
Location:  42.85°N, 94.85°W
Report Text: KSLB 221635Z AUTO 22018KT 1/2SM FG OVC002 03/03 A2975 RMK AO2
Loading
Personal Weather Stations






























Interactive Weather Map New forecast layout! Learn more

10-Day Weather Forecast

Advertisements
Track Severe Weather on mobile